Time;durP1;ratioP1;P1;durP2;ratioP2;P2;SDS_P1;SDS_P2;PMS_P1;PMS_P2;Temp;Humidity;BMP_temperature;BMP_pressure;BME280_temperature;BME280_humidity;BME280_pressure;Samples;Min_cycle;Max_cycle;Signal;HPM_P1;HPM_P2
2023/10/21 00:01:27;;;;;;;1.38;1.27;;;5.40;99.90;;;;;;5041498;28;20696;-58
2023/10/21 00:03:53;;;;;;;1.40;1.20;;;5.40;99.90;;;;;;5039975;28;20255;-60
2023/10/21 00:06:18;;;;;;;1.77;1.15;;;5.40;99.90;;;;;;5038739;28;20030;-60
2023/10/21 00:08:44;;;;;;;2.40;1.90;;;5.40;99.90;;;;;;5027460;28;20083;-59
2023/10/21 00:11:12;;;;;;;2.88;1.23;;;5.40;99.90;;;;;;5026371;28;20430;-58
2023/10/21 00:13:37;;;;;;;1.27;1.17;;;5.40;99.90;;;;;;5008646;28;20021;-60
2023/10/21 00:16:03;;;;;;;1.65;1.55;;;5.40;99.90;;;;;;5026631;28;20506;-59
2023/10/21 00:18:29;;;;;;;2.15;1.77;;;5.40;99.90;;;;;;5026151;28;20412;-58
2023/10/21 00:20:54;;;;;;;2.92;1.60;;;5.40;99.90;;;;;;5026567;28;20111;-59
2023/10/21 00:23:21;;;;;;;3.22;2.05;;;5.40;99.90;;;;;;5026100;28;20056;-58
2023/10/21 00:25:47;;;;;;;4.55;1.80;;;5.40;99.90;;;;;;5026482;28;20122;-58
2023/10/21 00:28:13;;;;;;;3.03;1.50;;;5.40;99.90;;;;;;5026380;28;20033;-58
2023/10/21 00:30:38;;;;;;;2.33;1.70;;;5.40;99.90;;;;;;5025252;28;20071;-56
2023/10/21 00:33:04;;;;;;;2.95;1.90;;;5.40;99.90;;;;;;5026364;28;20060;-59
2023/10/21 00:35:31;;;;;;;3.63;2.05;;;5.40;99.90;;;;;;5026421;28;20040;-57
2023/10/21 00:37:57;;;;;;;4.07;2.25;;;5.40;99.90;;;;;;5026713;28;20017;-56
2023/10/21 00:40:23;;;;;;;3.50;1.77;;;5.40;99.90;;;;;;5023636;28;20044;-58
2023/10/21 00:42:48;;;;;;;4.18;2.45;;;5.50;99.90;;;;;;5025651;28;20036;-59
2023/10/21 00:45:14;;;;;;;4.35;1.98;;;5.50;99.90;;;;;;5025891;28;20026;-60
2023/10/21 00:47:40;;;;;;;2.97;2.17;;;5.40;99.90;;;;;;5008134;28;20061;-60
2023/10/21 00:50:06;;;;;;;4.70;2.60;;;5.40;99.90;;;;;;5022789;28;20026;-58
2023/10/21 00:52:48;;;;;;;3.40;2.20;;;5.40;99.90;;;;;;5023807;28;20064;-57
2023/10/21 00:55:14;;;;;;;4.63;2.42;;;5.40;99.90;;;;;;5006192;28;20024;-57
2023/10/21 00:57:40;;;;;;;4.10;2.95;;;5.50;99.90;;;;;;5026957;28;20025;-59
2023/10/21 01:00:11;;;;;;;3.67;2.55;;;5.40;99.90;;;;;;5020335;28;20104;-59
2023/10/21 01:02:42;;;;;;;4.57;2.88;;;5.40;99.90;;;;;;5005787;28;20029;-57
2023/10/21 01:05:07;;;;;;;4.20;2.30;;;5.50;99.90;;;;;;5025071;28;20635;-56
2023/10/21 01:07:34;;;;;;;3.15;2.25;;;5.50;99.90;;;;;;5033759;28;20021;-58
2023/10/21 01:10:03;;;;;;;4.07;2.60;;;5.50;99.90;;;;;;5033698;28;20115;-59
2023/10/21 01:12:29;;;;;;;5.63;3.03;;;5.50;99.90;;;;;;5034113;28;20556;-58
2023/10/21 01:14:55;;;;;;;3.67;2.67;;;5.50;99.90;;;;;;5024516;28;20017;-58
2023/10/21 01:17:21;;;;;;;4.85;2.83;;;5.50;99.90;;;;;;5033691;28;20078;-58
2023/10/21 01:19:46;;;;;;;4.22;3.28;;;5.50;99.90;;;;;;5033658;28;20112;-58
2023/10/21 01:22:12;;;;;;;4.85;3.28;;;5.50;99.90;;;;;;5033983;28;20022;-58
2023/10/21 01:24:38;;;;;;;6.07;3.42;;;5.50;99.90;;;;;;5035335;28;20025;-58
2023/10/21 01:27:03;;;;;;;3.50;2.53;;;5.50;99.90;;;;;;5015633;28;20748;-58
2023/10/21 01:29:29;;;;;;;3.40;3.00;;;5.50;99.90;;;;;;5033797;28;20417;-59
2023/10/21 01:31:54;;;;;;;5.72;3.58;;;5.50;99.90;;;;;;5031262;28;20040;-60
2023/10/21 01:34:20;;;;;;;5.88;3.55;;;5.50;99.90;;;;;;5035106;28;20017;-60
2023/10/21 01:36:46;;;;;;;4.80;3.50;;;5.50;99.90;;;;;;5033742;28;20075;-57
2023/10/21 01:39:12;;;;;;;5.68;3.60;;;5.60;99.90;;;;;;5032090;28;20025;-57
2023/10/21 01:41:38;;;;;;;9.23;3.35;;;5.60;99.90;;;;;;5034965;28;20047;-56
2023/10/21 01:44:04;;;;;;;5.32;3.25;;;5.60;99.90;;;;;;5015854;28;20021;-58
2023/10/21 01:46:30;;;;;;;6.32;3.70;;;5.60;99.90;;;;;;5029486;28;20032;-56
2023/10/21 01:48:55;;;;;;;6.35;3.35;;;5.60;99.90;;;;;;5028153;28;20020;-57
2023/10/21 01:51:21;;;;;;;8.20;3.67;;;5.60;99.90;;;;;;5032620;28;20778;-59
2023/10/21 01:53:46;;;;;;;6.65;3.67;;;5.60;99.90;;;;;;5033861;28;20033;-56
2023/10/21 01:56:12;;;;;;;7.03;4.18;;;5.60;99.90;;;;;;5032165;28;20025;-58
2023/10/21 01:58:37;;;;;;;7.43;3.90;;;5.60;99.90;;;;;;5032504;28;20104;-58
2023/10/21 02:01:12;;;;;;;8.25;4.22;;;5.60;99.90;;;;;;5032382;28;20163;-59
2023/10/21 02:03:39;;;;;;;5.78;4.00;;;5.60;99.90;;;;;;5031350;28;20017;-57
2023/10/21 02:06:08;;;;;;;6.75;4.30;;;5.60;99.90;;;;;;5033811;28;20040;-58
2023/10/21 02:08:34;;;;;;;4.03;3.10;;;5.70;99.90;;;;;;5019033;28;20146;-59
2023/10/21 02:10:59;;;;;;;8.55;4.47;;;5.60;99.90;;;;;;5035523;28;20056;-60
2023/10/21 02:13:25;;;;;;;6.40;4.05;;;5.60;99.90;;;;;;5037622;28;20378;-59
2023/10/21 02:15:50;;;;;;;7.72;4.03;;;5.70;99.90;;;;;;5034504;28;20017;-59
2023/10/21 02:18:16;;;;;;;7.22;4.20;;;5.70;99.90;;;;;;5036284;28;20025;-59
2023/10/21 02:20:42;;;;;;;7.82;4.30;;;5.70;99.90;;;;;;5037784;28;20043;-59
2023/10/21 02:23:08;;;;;;;13.20;5.47;;;5.70;99.90;;;;;;5034963;28;20022;-59
2023/10/21 02:25:34;;;;;;;8.23;4.00;;;5.70;99.90;;;;;;5035979;28;20037;-59
2023/10/21 02:28:03;;;;;;;7.22;3.95;;;5.70;99.90;;;;;;5033776;28;20021;-59
2023/10/21 02:30:29;;;;;;;8.43;4.95;;;5.70;99.90;;;;;;5036070;28;20029;-60
2023/10/21 02:32:55;;;;;;;7.57;4.72;;;5.70;99.90;;;;;;5018341;28;20029;-59
2023/10/21 02:35:21;;;;;;;6.53;4.40;;;5.70;99.90;;;;;;5037339;28;20459;-60
2023/10/21 02:37:47;;;;;;;9.05;4.90;;;5.80;99.90;;;;;;5035953;28;20029;-60
2023/10/21 02:40:15;;;;;;;8.32;4.68;;;5.80;99.90;;;;;;5036457;28;20022;-59
2023/10/21 02:42:44;;;;;;;8.02;4.70;;;5.80;99.90;;;;;;5042335;28;20029;-59
2023/10/21 02:45:10;;;;;;;8.55;5.18;;;5.80;99.90;;;;;;5040116;28;21082;-60
2023/10/21 02:47:36;;;;;;;9.23;5.28;;;5.80;99.90;;;;;;5039001;28;20021;-60
2023/10/21 02:50:03;;;;;;;9.02;5.07;;;5.80;99.90;;;;;;5034598;28;20501;-61
2023/10/21 02:52:29;;;;;;;7.10;5.25;;;5.80;99.90;;;;;;5036241;28;20021;-60
2023/10/21 02:54:54;;;;;;;9.75;5.07;;;5.80;99.90;;;;;;5038904;28;20093;-60
2023/10/21 02:57:20;;;;;;;10.48;5.70;;;5.80;99.90;;;;;;5037001;28;20014;-60
2023/10/21 02:59:46;;;;;;;9.52;5.97;;;5.80;99.90;;;;;;5038266;28;20020;-60
2023/10/21 03:02:13;;;;;;;9.07;5.65;;;5.80;99.90;;;;;;5035658;28;20033;-60
2023/10/21 03:04:39;;;;;;;9.63;5.60;;;5.80;99.90;;;;;;5038777;28;20021;-58
2023/10/21 03:07:05;;;;;;;8.75;5.32;;;5.90;99.90;;;;;;5039334;28;20378;-61
2023/10/21 03:09:30;;;;;;;11.00;6.20;;;5.90;99.90;;;;;;5041557;28;20105;-60
2023/10/21 03:11:56;;;;;;;11.38;6.32;;;5.90;99.90;;;;;;5039727;28;20028;-60
2023/10/21 03:14:22;;;;;;;7.28;5.63;;;5.90;99.90;;;;;;5041086;28;20029;-60
2023/10/21 03:16:48;;;;;;;9.18;5.25;;;5.90;99.90;;;;;;5040866;28;20028;-60
2023/10/21 03:19:14;;;;;;;8.52;6.00;;;5.90;99.90;;;;;;5036822;28;20029;-60
2023/10/21 03:21:40;;;;;;;11.52;6.88;;;5.90;99.90;;;;;;5041027;28;20029;-59
2023/10/21 03:24:06;;;;;;;11.60;6.35;;;5.90;99.90;;;;;;5041159;28;20083;-59
2023/10/21 03:26:31;;;;;;;9.80;6.60;;;5.90;99.90;;;;;;5041039;28;20037;-58
2023/10/21 03:28:57;;;;;;;9.57;6.25;;;5.90;99.90;;;;;;5040346;28;20473;-59
2023/10/21 03:31:22;;;;;;;10.82;6.35;;;5.90;99.90;;;;;;5037755;28;20017;-58
2023/10/21 03:33:48;;;;;;;8.07;5.43;;;5.90;99.90;;;;;;5040753;28;20017;-59
2023/10/21 03:36:13;;;;;;;12.10;7.10;;;5.90;99.90;;;;;;5039840;28;20024;-60
2023/10/21 03:38:40;;;;;;;11.55;6.65;;;6.00;99.90;;;;;;5041364;28;20397;-59
2023/10/21 03:41:07;;;;;;;14.48;6.25;;;6.00;99.90;;;;;;5042055;28;20013;-61
2023/10/21 03:43:34;;;;;;;10.70;6.50;;;6.00;99.90;;;;;;5042184;28;20106;-60
2023/10/21 03:46:05;;;;;;;8.55;6.05;;;6.00;99.90;;;;;;5021487;28;20061;-61
2023/10/21 03:48:31;;;;;;;11.23;5.82;;;6.00;99.90;;;;;;5036802;28;20028;-59
2023/10/21 03:51:10;;;;;;;8.98;6.63;;;6.00;99.90;;;;;;5038932;28;20017;-61
2023/10/21 03:53:36;;;;;;;10.18;6.72;;;6.00;99.90;;;;;;5036661;28;20087;-59
2023/10/21 03:56:05;;;;;;;8.13;5.63;;;6.00;99.90;;;;;;5036286;28;20071;-59
2023/10/21 03:58:31;;;;;;;11.88;6.20;;;6.00;99.90;;;;;;5037177;28;20032;-59
2023/10/21 04:00:57;;;;;;;12.27;6.60;;;6.00;99.90;;;;;;5038664;28;20018;-58
2023/10/21 04:03:24;;;;;;;12.77;8.07;;;6.00;99.90;;;;;;5037539;28;20029;-57
2023/10/21 04:05:51;;;;;;;13.95;7.22;;;6.10;99.90;;;;;;5043872;28;20385;-59
2023/10/21 04:08:17;;;;;;;10.88;6.45;;;6.10;99.90;;;;;;5042219;28;20035;-58
2023/10/21 04:10:42;;;;;;;10.48;6.78;;;6.10;99.90;;;;;;5043899;28;20112;-60
2023/10/21 04:13:08;;;;;;;11.52;7.10;;;6.10;99.90;;;;;;5040411;28;20131;-59
2023/10/21 04:15:33;;;;;;;10.98;6.80;;;6.10;99.90;;;;;;5043843;28;20488;-60
2023/10/21 04:17:59;;;;;;;12.15;6.43;;;6.10;99.90;;;;;;5040195;28;20028;-59
2023/10/21 04:20:24;;;;;;;10.45;6.57;;;6.10;99.90;;;;;;5038362;28;20017;-59
2023/10/21 04:22:50;;;;;;;10.20;6.72;;;6.10;99.90;;;;;;5038010;28;20026;-59
2023/10/21 04:25:16;;;;;;;12.93;7.07;;;6.10;99.90;;;;;;5039661;28;20029;-60
2023/10/21 04:27:42;;;;;;;8.35;5.75;;;6.20;99.90;;;;;;5038048;28;20040;-59
2023/10/21 04:30:08;;;;;;;10.05;6.40;;;6.20;99.90;;;;;;5037009;28;20044;-58
2023/10/21 04:32:34;;;;;;;15.30;7.35;;;6.20;99.90;;;;;;5039818;28;20029;-59
2023/10/21 04:35:00;;;;;;;15.13;6.88;;;6.20;99.90;;;;;;5022622;28;20796;-60
2023/10/21 04:37:26;;;;;;;10.95;6.20;;;6.20;99.90;;;;;;5041071;28;20029;-60
2023/10/21 04:39:53;;;;;;;9.75;6.20;;;6.20;99.90;;;;;;5038431;28;20092;-59
2023/10/21 04:42:19;;;;;;;9.40;6.95;;;6.20;99.90;;;;;;5025206;28;20033;-59
2023/10/21 04:44:44;;;;;;;11.80;6.30;;;6.20;99.90;;;;;;5040946;28;20029;-60
2023/10/21 04:47:11;;;;;;;13.75;7.45;;;6.20;99.90;;;;;;5035562;28;20040;-59
2023/10/21 04:49:36;;;;;;;9.43;6.50;;;6.20;99.90;;;;;;5039623;28;20437;-60
2023/10/21 04:52:03;;;;;;;14.88;7.13;;;6.20;99.90;;;;;;5040283;28;20063;-60
2023/10/21 04:54:29;;;;;;;12.25;6.60;;;6.20;99.90;;;;;;5036054;28;20060;-57
2023/10/21 04:56:54;;;;;;;14.88;7.00;;;6.20;99.90;;;;;;5037967;28;20060;-60
2023/10/21 04:59:20;;;;;;;9.73;6.70;;;6.20;99.90;;;;;;5038211;28;20467;-60
2023/10/21 05:01:46;;;;;;;12.38;7.00;;;6.20;99.90;;;;;;5019205;28;20078;-60
2023/10/21 05:04:11;;;;;;;10.13;6.70;;;6.20;99.90;;;;;;5040423;28;20362;-60
2023/10/21 05:06:37;;;;;;;11.75;7.20;;;6.30;99.90;;;;;;5025439;28;20048;-60
2023/10/21 05:09:03;;;;;;;10.52;7.03;;;6.20;99.90;;;;;;5043540;28;20485;-60
2023/10/21 05:11:29;;;;;;;10.20;6.80;;;6.30;99.90;;;;;;5042946;28;20100;-60
2023/10/21 05:13:54;;;;;;;14.35;6.78;;;6.30;99.90;;;;;;5041499;28;20028;-60
2023/10/21 05:16:20;;;;;;;9.48;6.53;;;6.30;99.90;;;;;;5043630;28;20029;-60
2023/10/21 05:18:45;;;;;;;10.80;7.60;;;6.30;99.90;;;;;;5039803;28;20029;-60
2023/10/21 05:21:11;;;;;;;9.30;6.20;;;6.30;99.90;;;;;;5043068;28;20055;-60
2023/10/21 05:23:36;;;;;;;12.07;6.63;;;6.30;99.90;;;;;;5042391;28;20075;-59
2023/10/21 05:26:02;;;;;;;19.25;7.22;;;6.30;99.90;;;;;;5044441;28;20512;-58
2023/10/21 05:28:28;;;;;;;11.80;7.38;;;6.30;99.90;;;;;;5041919;28;20435;-60
2023/10/21 05:30:53;;;;;;;12.23;7.28;;;6.40;99.90;;;;;;5041447;28;20032;-58
2023/10/21 05:33:19;;;;;;;10.60;6.82;;;6.30;99.90;;;;;;5044340;28;20037;-58
2023/10/21 05:35:45;;;;;;;9.80;6.38;;;6.40;99.90;;;;;;5040605;28;20020;-60
2023/10/21 05:38:10;;;;;;;13.10;6.45;;;6.40;99.90;;;;;;5040318;28;20482;-61
2023/10/21 05:40:37;;;;;;;8.10;5.82;;;6.40;99.90;;;;;;5044029;28;20032;-61
2023/10/21 05:43:03;;;;;;;11.25;7.03;;;6.40;99.90;;;;;;5042767;28;20172;-61
2023/10/21 05:45:29;;;;;;;13.90;6.60;;;6.40;99.90;;;;;;5040707;28;20545;-59
2023/10/21 05:47:55;;;;;;;11.77;7.88;;;6.40;99.90;;;;;;5031461;28;20536;-59
2023/10/21 05:50:21;;;;;;;10.55;6.97;;;6.40;99.90;;;;;;5029323;28;20036;-60
2023/10/21 05:52:47;;;;;;;12.07;6.57;;;6.40;99.90;;;;;;5038962;28;20162;-60
2023/10/21 05:55:13;;;;;;;9.05;6.47;;;6.40;99.90;;;;;;5031765;28;20025;-56
2023/10/21 05:57:39;;;;;;;12.38;7.30;;;6.50;99.90;;;;;;5033794;28;20014;-59
2023/10/21 06:00:07;;;;;;;11.38;6.90;;;6.50;99.90;;;;;;5024557;28;20425;-60
2023/10/21 06:02:33;;;;;;;9.80;6.63;;;6.50;99.90;;;;;;5035847;28;20378;-57
2023/10/21 06:04:58;;;;;;;12.00;7.40;;;6.50;99.90;;;;;;5039447;28;20028;-59
2023/10/21 06:07:24;;;;;;;9.90;6.57;;;6.50;99.90;;;;;;5036031;28;20026;-60
2023/10/21 06:09:49;;;;;;;10.07;7.03;;;6.50;99.90;;;;;;5041422;28;20017;-58
2023/10/21 06:12:15;;;;;;;12.05;7.65;;;6.50;99.90;;;;;;5041796;28;20578;-57
2023/10/21 06:14:40;;;;;;;12.25;7.55;;;6.50;99.90;;;;;;5041938;28;20025;-57
2023/10/21 06:17:06;;;;;;;10.50;7.00;;;6.50;99.90;;;;;;5046510;28;20025;-57
2023/10/21 06:19:32;;;;;;;10.00;7.15;;;6.50;99.90;;;;;;5041723;28;20542;-58
2023/10/21 06:21:58;;;;;;;10.32;6.63;;;6.50;99.90;;;;;;5027728;28;20025;-58
2023/10/21 06:24:24;;;;;;;11.40;7.85;;;6.50;99.90;;;;;;5042814;28;20658;-59
2023/10/21 06:26:49;;;;;;;10.55;6.72;;;6.50;99.90;;;;;;5042398;28;20476;-60
2023/10/21 06:29:15;;;;;;;13.93;7.28;;;6.60;99.90;;;;;;5044204;28;20400;-56
2023/10/21 06:31:40;;;;;;;10.45;7.05;;;6.60;99.90;;;;;;5041271;28;20409;-58
2023/10/21 06:34:06;;;;;;;9.23;6.57;;;6.60;99.90;;;;;;5045037;28;20017;-58
2023/10/21 06:36:31;;;;;;;7.15;5.90;;;6.60;99.90;;;;;;5038813;28;20036;-60
2023/10/21 06:38:57;;;;;;;10.48;6.32;;;6.60;99.90;;;;;;5046172;28;20017;-60
2023/10/21 06:41:23;;;;;;;10.57;6.70;;;6.60;99.90;;;;;;5024910;28;20022;-59
2023/10/21 06:43:49;;;;;;;9.50;6.32;;;6.60;99.90;;;;;;5043021;28;20016;-59
2023/10/21 06:46:15;;;;;;;8.68;6.15;;;6.60;99.90;;;;;;5041319;28;20034;-62
2023/10/21 06:48:41;;;;;;;9.88;6.35;;;6.60;99.90;;;;;;5036012;28;20033;-58
2023/10/21 06:51:06;;;;;;;8.32;5.60;;;6.60;99.90;;;;;;5038977;28;20029;-62
2023/10/21 06:53:32;;;;;;;7.85;5.80;;;6.60;99.90;;;;;;5040480;28;20044;-60
2023/10/21 06:55:58;;;;;;;8.20;5.60;;;6.70;99.90;;;;;;5039773;28;20014;-60
2023/10/21 06:58:25;;;;;;;9.43;5.75;;;6.70;99.90;;;;;;5040890;28;20021;-58
2023/10/21 07:00:51;;;;;;;10.63;6.43;;;6.70;99.90;;;;;;5037744;28;20021;-58
2023/10/21 07:03:17;;;;;;;8.90;5.43;;;6.80;99.90;;;;;;5042810;28;20025;-62
2023/10/21 07:05:42;;;;;;;9.52;5.80;;;6.80;99.90;;;;;;5041526;28;20093;-59
2023/10/21 07:08:08;;;;;;;9.43;6.18;;;6.80;99.90;;;;;;5026913;28;20021;-59
2023/10/21 07:10:33;;;;;;;8.25;6.57;;;6.80;99.90;;;;;;5040399;28;20033;-58
2023/10/21 07:12:59;;;;;;;10.35;6.25;;;6.80;99.90;;;;;;5045990;28;20066;-59
2023/10/21 07:15:33;;;;;;;8.80;6.03;;;6.80;99.90;;;;;;5043417;28;20028;-57
2023/10/21 07:17:59;;;;;;;9.50;6.63;;;6.80;99.90;;;;;;5043208;28;20044;-56
2023/10/21 07:20:26;;;;;;;8.45;6.43;;;6.80;99.90;;;;;;5042826;28;20644;-61
2023/10/21 07:22:52;;;;;;;11.90;6.82;;;6.90;99.90;;;;;;5044328;28;20090;-59
2023/10/21 07:25:20;;;;;;;11.40;6.88;;;6.90;99.90;;;;;;5042062;28;20091;-58
2023/10/21 07:27:46;;;;;;;10.18;6.97;;;6.90;99.90;;;;;;5044901;28;20032;-60
2023/10/21 07:30:12;;;;;;;9.52;6.28;;;6.80;99.90;;;;;;5042278;28;20122;-57
2023/10/21 07:32:38;;;;;;;9.63;6.80;;;6.90;99.90;;;;;;5042364;28;20021;-58
2023/10/21 07:35:04;;;;;;;9.32;6.68;;;6.90;99.90;;;;;;5043855;28;20029;-60
2023/10/21 07:37:30;;;;;;;9.10;6.25;;;6.90;99.90;;;;;;5044120;28;20040;-61
2023/10/21 07:39:59;;;;;;;10.02;6.55;;;6.90;99.90;;;;;;5045293;28;20021;-60
2023/10/21 07:42:27;;;;;;;8.50;7.05;;;6.90;99.90;;;;;;5041258;28;20025;-61
2023/10/21 07:44:53;;;;;;;11.82;6.88;;;7.00;99.90;;;;;;5045765;28;20403;-60
2023/10/21 07:47:20;;;;;;;11.77;7.55;;;7.00;99.90;;;;;;5020703;28;20083;-57
2023/10/21 07:49:45;;;;;;;9.27;6.75;;;7.10;99.90;;;;;;5037269;28;20025;-60
2023/10/21 07:52:11;;;;;;;10.20;6.28;;;7.00;99.90;;;;;;5021658;28;20029;-60
2023/10/21 07:54:40;;;;;;;9.43;6.03;;;7.10;99.90;;;;;;5040694;28;20029;-60
2023/10/21 07:57:05;;;;;;;9.55;6.22;;;7.10;99.90;;;;;;5040438;28;20052;-60
2023/10/21 07:59:31;;;;;;;7.65;5.70;;;7.10;99.90;;;;;;5037715;28;20063;-59
2023/10/21 08:01:57;;;;;;;9.75;7.22;;;7.10;99.90;;;;;;5039970;28;20026;-56
2023/10/21 08:04:23;;;;;;;9.85;7.18;;;7.10;99.90;;;;;;5041171;28;20500;-60
2023/10/21 08:06:49;;;;;;;10.68;6.47;;;7.10;99.90;;;;;;5040911;28;20075;-60
2023/10/21 08:09:18;;;;;;;10.75;7.25;;;7.10;99.90;;;;;;5042616;28;20140;-58
2023/10/21 08:11:44;;;;;;;9.70;6.22;;;7.10;99.90;;;;;;5041172;28;20142;-59
2023/10/21 08:14:13;;;;;;;10.52;6.82;;;7.20;99.90;;;;;;5043647;28;20082;-60
2023/10/21 08:16:38;;;;;;;11.65;6.53;;;7.20;99.90;;;;;;5037323;28;20473;-57
2023/10/21 08:19:05;;;;;;;8.40;6.22;;;7.20;99.90;;;;;;5039633;28;20035;-59
2023/10/21 08:21:34;;;;;;;8.88;6.22;;;7.30;99.90;;;;;;5041345;28;20483;-58
2023/10/21 08:24:03;;;;;;;9.35;6.15;;;7.30;99.90;;;;;;5040579;28;20060;-59
2023/10/21 08:26:31;;;;;;;7.55;6.18;;;7.30;99.90;;;;;;5042985;28;20208;-60
2023/10/21 08:28:57;;;;;;;8.10;6.00;;;7.30;99.90;;;;;;5041525;28;20036;-58
2023/10/21 08:31:24;;;;;;;7.70;6.07;;;7.30;99.90;;;;;;5041409;28;20029;-56
2023/10/21 08:33:52;;;;;;;9.82;6.25;;;7.40;99.90;;;;;;5042729;28;20018;-57
2023/10/21 08:36:20;;;;;;;11.15;5.90;;;7.40;99.90;;;;;;5042756;28;20056;-55
2023/10/21 08:38:47;;;;;;;8.75;5.70;;;7.50;99.90;;;;;;5040807;28;20041;-60
2023/10/21 08:41:13;;;;;;;9.88;5.55;;;7.50;99.90;;;;;;5038187;28;20571;-58
2023/10/21 08:43:45;;;;;;;7.60;5.25;;;7.50;99.90;;;;;;5043638;28;20063;-58
2023/10/21 08:46:13;;;;;;;8.57;5.90;;;7.50;99.90;;;;;;5041814;28;20053;-58
2023/10/21 08:48:39;;;;;;;7.57;5.60;;;7.60;99.90;;;;;;5042941;28;20021;-53
2023/10/21 08:51:09;;;;;;;8.80;5.50;;;7.60;99.90;;;;;;5040412;28;20515;-58
2023/10/21 08:53:38;;;;;;;8.90;5.35;;;7.60;99.90;;;;;;5033572;28;20025;-56
2023/10/21 08:56:03;;;;;;;7.43;4.88;;;7.60;99.90;;;;;;5041229;28;20108;-58
2023/10/21 08:58:30;;;;;;;8.45;5.07;;;7.60;99.90;;;;;;5016665;28;20112;-58
2023/10/21 09:00:57;;;;;;;6.63;4.72;;;7.60;99.90;;;;;;5022728;28;20482;-54
2023/10/21 09:03:23;;;;;;;6.28;4.93;;;7.70;99.90;;;;;;5018470;28;20034;-60
2023/10/21 09:06:01;;;;;;;4.90;3.80;;;7.60;99.90;;;;;;5039923;28;20088;-55
2023/10/21 09:08:34;;;;;;;5.28;3.85;;;7.70;99.90;;;;;;5038479;28;20144;-57
2023/10/21 09:11:00;;;;;;;4.75;4.10;;;7.70;99.90;;;;;;5037674;28;20064;-56
2023/10/21 09:13:34;;;;;;;6.97;4.22;;;7.70;99.90;;;;;;5038911;28;20437;-56
2023/10/21 09:16:00;;;;;;;5.53;3.95;;;7.70;99.90;;;;;;5035760;28;20033;-58
2023/10/21 09:18:26;;;;;;;6.43;3.67;;;7.80;99.90;;;;;;5040226;28;20555;-56
2023/10/21 09:20:51;;;;;;;4.57;3.53;;;7.80;99.90;;;;;;5039479;28;20057;-57
2023/10/21 09:23:20;;;;;;;3.25;2.70;;;7.80;99.90;;;;;;5039671;28;20041;-59
2023/10/21 09:25:50;;;;;;;3.92;3.40;;;7.80;99.90;;;;;;5034803;28;20035;-58
2023/10/21 09:28:23;;;;;;;4.55;2.90;;;7.90;99.90;;;;;;5040916;28;20033;-58
2023/10/21 09:30:57;;;;;;;5.20;3.80;;;7.90;99.90;;;;;;5036223;28;20044;-56
2023/10/21 09:33:23;;;;;;;4.28;2.95;;;7.90;99.90;;;;;;5040069;28;20460;-57
2023/10/21 09:36:01;;;;;;;4.80;3.15;;;7.90;99.90;;;;;;5038631;28;20032;-56
2023/10/21 09:38:27;;;;;;;3.47;2.70;;;7.90;99.90;;;;;;5041540;28;20025;-57
2023/10/21 09:40:53;;;;;;;2.75;2.25;;;7.90;99.90;;;;;;5036848;28;20056;-58
2023/10/21 09:43:22;;;;;;;3.83;3.13;;;7.90;99.90;;;;;;5039913;28;20039;-56
2023/10/21 09:45:52;;;;;;;3.78;3.03;;;7.90;99.90;;;;;;5022246;28;20090;-56
2023/10/21 09:48:18;;;;;;;8.32;2.88;;;8.00;99.90;;;;;;5038306;28;20037;-58
2023/10/21 09:50:50;;;;;;;2.50;2.03;;;8.00;99.90;;;;;;5034532;28;20029;-60
2023/10/21 09:53:18;;;;;;;3.90;2.33;;;7.90;99.90;;;;;;5031665;28;20044;-59
2023/10/21 09:55:44;;;;;;;3.45;2.42;;;8.00;99.90;;;;;;5037760;28;20124;-57
2023/10/21 09:58:12;;;;;;;3.45;2.75;;;8.00;99.90;;;;;;5035303;28;20017;-57
2023/10/21 10:00:38;;;;;;;2.90;2.58;;;8.00;99.90;;;;;;5039198;28;20029;-53
2023/10/21 10:03:05;;;;;;;4.93;2.78;;;8.00;99.90;;;;;;5038364;28;20075;-56
2023/10/21 10:05:31;;;;;;;3.17;2.65;;;8.00;99.90;;;;;;5040353;28;20039;-55
2023/10/21 10:07:58;;;;;;;2.85;2.60;;;8.00;99.90;;;;;;5040182;28;20049;-57
2023/10/21 10:10:25;;;;;;;3.10;2.58;;;8.10;99.90;;;;;;5041827;28;20925;-54
2023/10/21 10:12:55;;;;;;;2.70;2.33;;;8.10;99.90;;;;;;5040654;28;20029;-58
2023/10/21 10:15:37;;;;;;;2.50;2.30;;;8.10;99.90;;;;;;5036624;28;20029;-57
2023/10/21 10:18:04;;;;;;;3.80;2.33;;;8.20;99.90;;;;;;5040735;28;20524;-55
2023/10/21 10:20:30;;;;;;;3.22;2.40;;;8.20;99.90;;;;;;5019920;28;20029;-58
2023/10/21 10:23:03;;;;;;;2.22;1.98;;;8.20;99.90;;;;;;5038335;28;20036;-58
2023/10/21 10:25:38;;;;;;;2.25;2.05;;;8.30;99.90;;;;;;5034738;28;20033;-58
2023/10/21 10:28:08;;;;;;;2.72;2.20;;;8.30;99.90;;;;;;5040230;28;20048;-56
2023/10/21 10:30:35;;;;;;;3.63;2.22;;;8.30;99.90;;;;;;5020346;28;20116;-59
2023/10/21 10:33:12;;;;;;;2.95;2.08;;;8.30;99.90;;;;;;5023190;28;20473;-58
2023/10/21 10:35:47;;;;;;;3.10;2.05;;;8.30;99.90;;;;;;5040232;28;20033;-60
2023/10/21 10:38:20;;;;;;;2.28;1.90;;;8.40;99.90;;;;;;5036990;28;20290;-58
2023/10/21 10:40:46;;;;;;;2.85;2.08;;;8.40;99.90;;;;;;5039710;28;20025;-58
2023/10/21 10:43:13;;;;;;;2.50;2.30;;;8.50;99.90;;;;;;5040050;28;20051;-59
2023/10/21 10:45:39;;;;;;;2.40;2.20;;;8.50;99.90;;;;;;5042055;28;20409;-58
2023/10/21 10:48:07;;;;;;;3.50;2.17;;;8.50;99.90;;;;;;5038433;28;20492;-58
2023/10/21 10:50:36;;;;;;;3.30;2.50;;;8.50;99.90;;;;;;5038606;28;20033;-58
2023/10/21 10:53:16;;;;;;;4.05;2.95;;;8.50;99.90;;;;;;5037215;28;20113;-57
2023/10/21 10:55:46;;;;;;;3.42;2.65;;;8.60;99.90;;;;;;5035121;28;20190;-57
2023/10/21 10:58:11;;;;;;;3.40;2.83;;;8.60;99.90;;;;;;5039270;28;20040;-60
2023/10/21 11:00:39;;;;;;;3.35;3.00;;;8.60;99.90;;;;;;5039576;28;20025;-59
2023/10/21 11:03:06;;;;;;;5.97;3.45;;;8.60;99.90;;;;;;5018954;28;20034;-57
2023/10/21 11:05:32;;;;;;;6.53;4.22;;;8.60;99.90;;;;;;5018368;28;20059;-57
2023/10/21 11:07:58;;;;;;;4.72;3.78;;;8.60;99.90;;;;;;5017750;28;20029;-58
2023/10/21 11:10:25;;;;;;;4.18;3.60;;;8.60;99.90;;;;;;5036621;28;20036;-59
2023/10/21 11:12:51;;;;;;;5.53;4.50;;;8.60;99.90;;;;;;5035031;28;20493;-60
2023/10/21 11:15:17;;;;;;;8.27;5.47;;;8.60;99.90;;;;;;5033743;28;20117;-59
2023/10/21 11:17:48;;;;;;;6.07;4.97;;;8.60;99.90;;;;;;5037876;28;20223;-56
2023/10/21 11:20:14;;;;;;;6.38;5.72;;;8.60;99.90;;;;;;5032354;28;20102;-55
2023/10/21 11:22:41;;;;;;;6.38;5.00;;;8.60;99.90;;;;;;5034860;28;20025;-57
2023/10/21 11:25:08;;;;;;;6.00;4.47;;;8.60;99.90;;;;;;5029604;28;20107;-57
2023/10/21 11:27:35;;;;;;;6.45;5.25;;;8.60;99.90;;;;;;5038820;28;20028;-58
2023/10/21 11:30:01;;;;;;;5.18;4.68;;;8.60;99.90;;;;;;5034506;28;20043;-57
2023/10/21 11:32:30;;;;;;;5.65;5.00;;;8.60;99.90;;;;;;5034852;28;20025;-57
2023/10/21 11:35:01;;;;;;;7.25;5.30;;;8.60;99.90;;;;;;5017191;28;20052;-57
2023/10/21 11:37:27;;;;;;;6.97;5.47;;;8.60;99.90;;;;;;5036342;28;20517;-58
2023/10/21 11:39:52;;;;;;;4.88;3.60;;;8.60;99.90;;;;;;5035426;28;20028;-55
2023/10/21 11:42:18;;;;;;;6.88;5.25;;;8.60;99.90;;;;;;5034850;28;20029;-59
2023/10/21 11:44:58;;;;;;;7.50;5.93;;;8.70;99.90;;;;;;5037729;28;20032;-58
2023/10/21 11:47:26;;;;;;;7.57;5.28;;;8.70;99.90;;;;;;5033466;28;20456;-56
2023/10/21 11:49:54;;;;;;;6.22;4.90;;;8.70;99.90;;;;;;5032797;28;20025;-56
2023/10/21 11:52:21;;;;;;;6.00;5.07;;;8.70;99.90;;;;;;5033989;28;20044;-53
2023/10/21 11:55:19;;;;;;;7.72;4.72;;;8.80;99.90;;;;;;5031901;28;20025;-57
2023/10/21 11:58:27;;;;;;;6.18;4.65;;;8.80;99.90;;;;;;5037433;28;20588;-52
2023/10/21 12:19:35;;;;;;;6.13;4.35;;;9.00;99.90;;;;;;5034708;28;20028;-58
2023/10/21 12:41:11;;;;;;;6.03;4.65;;;9.20;99.90;;;;;;5037043;28;20075;-57
2023/10/21 12:43:35;;;;;;;5.73;4.50;;;9.30;99.90;;;;;;5039672;28;20633;-57
2023/10/21 12:46:14;;;;;;;5.60;4.38;;;9.40;99.90;;;;;;5020290;28;20508;-57
2023/10/21 12:48:41;;;;;;;6.30;5.25;;;9.40;99.90;;;;;;5036991;28;20016;-56
2023/10/21 12:51:09;;;;;;;4.85;4.28;;;9.50;99.90;;;;;;5033020;28;20048;-58
2023/10/21 12:53:35;;;;;;;5.13;4.07;;;9.60;99.90;;;;;;5031823;28;20040;-57
2023/10/21 12:56:00;;;;;;;6.43;4.93;;;9.70;99.90;;;;;;5014280;28;20021;-59
2023/10/21 12:58:26;;;;;;;6.32;5.05;;;9.80;99.90;;;;;;5034356;28;20022;-57
2023/10/21 13:00:51;;;;;;;7.18;5.35;;;9.90;99.90;;;;;;5033804;28;20025;-59
2023/10/21 13:03:17;;;;;;;7.07;5.55;;;9.90;99.90;;;;;;5034368;28;20482;-56
2023/10/21 13:05:46;;;;;;;7.63;5.90;;;10.00;99.90;;;;;;5039844;28;20021;-57
2023/10/21 13:08:11;;;;;;;6.35;5.40;;;9.90;99.90;;;;;;5018725;28;20533;-57
2023/10/21 13:10:37;;;;;;;6.80;5.53;;;9.90;99.90;;;;;;5040292;28;20025;-60
2023/10/21 13:13:04;;;;;;;6.25;5.03;;;9.90;99.90;;;;;;5036732;28;20116;-60
2023/10/21 13:15:30;;;;;;;6.43;4.80;;;9.90;99.90;;;;;;5038109;28;20029;-57
2023/10/21 13:17:56;;;;;;;6.75;6.03;;;9.90;99.90;;;;;;5039251;28;20013;-59
2023/10/21 13:20:21;;;;;;;7.20;5.53;;;9.90;99.90;;;;;;5036831;28;20026;-57
2023/10/21 13:22:47;;;;;;;5.63;4.95;;;9.90;99.90;;;;;;5040971;28;20048;-60
2023/10/21 13:25:13;;;;;;;6.78;5.78;;;9.90;99.90;;;;;;5038193;28;20048;-60
2023/10/21 13:27:42;;;;;;;7.18;6.35;;;10.00;99.90;;;;;;5038797;28;20137;-60
2023/10/21 13:30:13;;;;;;;7.47;6.47;;;10.10;99.90;;;;;;5037477;28;20025;-58
2023/10/21 13:32:43;;;;;;;8.88;6.43;;;10.20;99.90;;;;;;5039130;28;20124;-59